Alvarado, Indiana
Current Conditions -  °F | °C
As of 7:55 AM on Monday 24 Nov 2014 (Local Time) from KANQ Reporting Station
Overcast Overcast  
Wind Chill: 12°   Ceiling: 1400
Heat Index: 12°   Visibility: 10mi
Dew Point:   Wind: 14mph
Humidity: 67%   Direction: 210°SSW
Pressure: 29.11"   Gusts: NA
Location:  41.5557°N, 84.8806°W
Report Text: KANQ 241255Z AUTO 21012KT 10SM OVC014 12/06 A2911 RMK
Loading
Personal Weather Stations






























Interactive Weather Map New forecast layout! Learn more

10-Day Weather Forecast

Advertisements
Track Severe Weather on mobile